Time;durP1;ratioP1;P1;durP2;ratioP2;P2;SDS_P1;SDS_P2;PMS_P1;PMS_P2;Temp;Humidity;BMP_temperature;BMP_pressure;BME280_temperature;BME280_humidity;BME280_pressure;Samples;Min_cycle;Max_cycle;Signal;HPM_P1;HPM_P2
2024/04/17 00:01:48;;;;;;;1.95;0.70;;;;;;;11.58;66.45;97473.03;5423255;26;20074;-66
2024/04/17 00:04:13;;;;;;;4.15;1.08;;;;;;;11.69;66.98;97472.56;5395510;26;20083;-67
2024/04/17 00:06:39;;;;;;;4.57;0.70;;;;;;;11.54;67.53;97472.56;5428216;26;20010;-70
2024/04/17 00:09:04;;;;;;;3.45;0.90;;;;;;;11.67;67.02;97471.94;5393619;26;20006;-67
2024/04/17 00:11:32;;;;;;;2.25;0.80;;;;;;;11.53;67.51;97465.72;5435844;26;19998;-70
2024/04/17 00:13:57;;;;;;;2.97;0.88;;;;;;;11.73;66.55;97462.59;5461108;26;20002;-64
2024/04/17 00:16:23;;;;;;;5.82;1.00;;;;;;;11.65;67.84;97466.13;5421650;26;20030;-65
2024/04/17 00:18:48;;;;;;;3.38;0.90;;;;;;;11.60;68.92;97465.84;5440370;26;20721;-67
2024/04/17 00:21:14;;;;;;;2.90;0.93;;;;;;;11.45;68.01;97428.59;5427558;26;20987;-67
2024/04/17 00:23:39;;;;;;;2.97;0.90;;;;;;;11.60;68.74;97468.44;5395619;26;19995;-68
2024/04/17 00:26:04;;;;;;;4.25;0.90;;;;;;;11.04;68.86;97450.59;5424239;26;20003;-68
2024/04/17 00:28:30;;;;;;;2.30;0.70;;;;;;;10.70;70.67;97446.66;5410891;26;20018;-68
2024/04/17 00:30:57;;;;;;;2.17;0.70;;;;;;;10.53;70.27;97412.16;5398991;26;19999;-69
2024/04/17 00:33:25;;;;;;;2.70;0.70;;;;;;;10.71;71.07;97440.44;5421670;26;20709;-67
2024/04/17 00:35:50;;;;;;;2.75;0.80;;;;;;;10.90;70.37;97451.38;5429001;26;20034;-70
2024/04/17 00:38:16;;;;;;;2.53;0.90;;;;;;;10.71;70.72;97432.66;5431925;26;20417;-70
2024/04/17 00:40:41;;;;;;;4.95;0.90;;;;;;;10.96;71.55;97438.47;5426055;26;20051;-67
2024/04/17 00:43:07;;;;;;;3.10;1.00;;;;;;;11.03;71.00;97430.78;5425679;26;20088;-66
2024/04/17 00:45:50;;;;;;;2.80;0.85;;;;;;;11.24;70.77;97429.28;5422517;26;20015;-68
2024/04/17 00:48:16;;;;;;;3.15;1.10;;;;;;;11.27;70.23;97421.13;5428184;26;19995;-68
2024/04/17 00:50:50;;;;;;;2.80;0.82;;;;;;;11.19;70.49;97426.41;5428965;26;20013;-70
2024/04/17 00:53:18;;;;;;;4.63;1.08;;;;;;;11.09;70.15;97424.84;5425464;26;20015;-69
2024/04/17 00:55:44;;;;;;;3.42;1.02;;;;;;;11.08;70.54;97422.44;5398585;26;20026;-68
2024/04/17 00:58:11;;;;;;;5.00;1.25;;;;;;;11.33;69.20;97417.81;5424131;26;20002;-69
2024/04/17 01:00:37;;;;;;;4.30;1.00;;;;;;;11.30;68.68;97424.19;5459146;26;20014;-67
2024/04/17 01:03:02;;;;;;;4.05;0.75;;;;;;;11.14;70.08;97417.34;5396662;26;20003;-66
2024/04/17 01:05:31;;;;;;;2.53;0.70;;;;;;;11.16;69.13;97411.97;5388925;26;20003;-69
2024/04/17 01:08:00;;;;;;;3.25;0.90;;;;;;;10.81;70.84;97383.03;5435516;26;19994;-69
2024/04/17 01:10:28;;;;;;;3.40;0.90;;;;;;;10.94;70.91;97385.03;5432315;26;20373;-67
2024/04/17 01:12:56;;;;;;;3.17;0.73;;;;;;;10.99;71.62;97413.91;5393098;26;20000;-68
2024/04/17 01:15:21;;;;;;;4.18;0.70;;;;;;;10.64;71.68;97418.75;5434768;26;19998;-67
2024/04/17 01:17:47;;;;;;;2.92;0.85;;;;;;;10.62;73.21;97419.88;5396846;26;21721;-67
2024/04/17 01:20:15;;;;;;;4.55;1.15;;;;;;;10.50;74.66;97409.91;5396916;26;20031;-69
2024/04/17 01:22:41;;;;;;;4.25;0.77;;;;;;;10.70;72.66;97409.44;5431989;26;20006;-66
2024/04/17 01:25:06;;;;;;;5.43;0.80;;;;;;;10.57;72.25;97373.66;5392788;26;20010;-68
2024/04/17 01:27:31;;;;;;;2.17;0.70;;;;;;;10.49;72.85;97376.28;5417936;26;20003;-71
2024/04/17 01:29:57;;;;;;;1.95;0.65;;;;;;;10.66;73.11;97421.16;5429944;26;21827;-67
2024/04/17 01:32:25;;;;;;;2.90;0.70;;;;;;;10.86;71.80;97417.13;5427932;26;20532;-70
2024/04/17 01:34:51;;;;;;;3.03;0.73;;;;;;;10.91;72.29;97408.78;5424649;26;20075;-67
2024/04/17 01:37:16;;;;;;;3.00;0.90;;;;;;;10.77;71.70;97399.97;5429767;26;20530;-67
2024/04/17 01:39:42;;;;;;;2.13;0.50;;;;;;;10.58;70.99;97396.03;5427189;26;19994;-67
2024/04/17 01:42:07;;;;;;;2.85;0.77;;;;;;;10.47;72.24;97407.66;5428669;26;20315;-69
2024/04/17 01:44:33;;;;;;;3.45;0.80;;;;;;;10.51;71.89;97389.91;5409511;26;20006;-68
2024/04/17 01:47:00;;;;;;;3.42;0.90;;;;;;;10.68;72.06;97412.22;5477434;25;20087;-66
2024/04/17 01:49:26;;;;;;;3.70;0.80;;;;;;;10.60;72.33;97414.88;5425698;26;20005;-66
2024/04/17 01:51:53;;;;;;;2.63;0.80;;;;;;;10.58;72.32;97415.03;5399027;26;20003;-66
2024/04/17 01:54:21;;;;;;;3.70;1.00;;;;;;;10.48;72.62;97411.06;5384674;26;20671;-68
2024/04/17 01:56:51;;;;;;;3.33;1.10;;;;;;;10.50;72.34;97415.09;5423366;26;20454;-67
2024/04/17 01:59:16;;;;;;;;;;;;;;;10.44;73.11;97415.81;5424007;26;20866;-66
2024/04/17 02:01:42;;;;;;;2.72;0.80;;;;;;;10.41;72.38;97415.34;5395576;26;19925;-68
2024/04/17 02:04:07;;;;;;;6.07;1.42;;;;;;;10.07;72.89;97391.31;5486914;25;20003;-68
2024/04/17 02:06:33;;;;;;;3.13;1.00;;;;;;;9.91;74.65;97412.16;5430866;26;20010;-68
2024/04/17 02:09:00;;;;;;;4.25;1.40;;;;;;;9.55;75.82;97371.13;5423540;26;19995;-67
2024/04/17 02:11:26;;;;;;;4.40;1.58;;;;;;;9.46;77.55;97411.84;5427266;26;20029;-68
2024/04/17 02:13:51;;;;;;;4.82;1.17;;;;;;;9.49;77.88;97400.31;5386398;26;20110;-67
2024/04/17 02:16:19;;;;;;;3.28;1.00;;;;;;;9.35;78.53;97361.13;5431820;26;20528;-67
2024/04/17 02:18:44;;;;;;;3.97;1.05;;;;;;;9.58;79.04;97368.19;5398205;26;20009;-70
2024/04/17 02:21:12;;;;;;;2.92;0.88;;;;;;;9.92;79.08;97406.00;5422721;26;20017;-68
2024/04/17 02:23:39;;;;;;;4.53;1.35;;;;;;;10.09;76.64;97406.72;5395890;26;20002;-71
2024/04/17 02:26:05;;;;;;;6.75;1.20;;;;;;;9.80;77.06;97371.81;5397780;26;19999;-64
2024/04/17 02:28:30;;;;;;;4.07;1.20;;;;;;;10.12;76.67;97409.78;5431128;26;20045;-68
2024/04/17 02:30:55;;;;;;;5.13;1.20;;;;;;;10.18;76.16;97398.72;5424552;26;19999;-66
2024/04/17 02:33:21;;;;;;;4.60;1.25;;;;;;;10.01;76.95;97403.19;5434005;26;20765;-67
2024/04/17 02:35:48;;;;;;;3.28;1.02;;;;;;;9.95;77.00;97397.88;5426375;26;20596;-67
2024/04/17 02:38:16;;;;;;;3.20;0.98;;;;;;;9.91;76.53;97388.78;5385626;26;20375;-67
2024/04/17 02:40:41;;;;;;;3.30;0.80;;;;;;;9.95;76.68;97395.28;5396307;26;20007;-66
2024/04/17 02:43:06;;;;;;;3.63;0.82;;;;;;;9.80;76.96;97382.19;5426851;26;20018;-68
2024/04/17 02:45:39;;;;;;;3.22;0.95;;;;;;;9.67;77.62;97394.91;5426726;26;20075;-70
2024/04/17 02:48:05;;;;;;;3.55;1.10;;;;;;;9.58;78.51;97394.13;5421571;26;20005;-67
2024/04/17 02:50:33;;;;;;;3.92;1.08;;;;;;;9.66;78.18;97382.94;5436840;26;20002;-67
2024/04/17 02:53:01;;;;;;;3.42;1.02;;;;;;;9.37;78.61;97341.03;5425874;26;20039;-68
2024/04/17 02:55:26;;;;;;;5.05;1.30;;;;;;;9.70;78.50;97385.00;5424438;26;20040;-68
2024/04/17 02:57:54;;;;;;;4.15;1.20;;;;;;;9.71;78.11;97385.81;5421078;26;20314;-67
2024/04/17 03:00:25;;;;;;;2.58;0.90;;;;;;;9.67;78.04;97379.34;5430941;26;20010;-66
2024/04/17 03:02:50;;;;;;;3.70;1.20;;;;;;;9.73;78.29;97376.06;5431148;26;19994;-68
2024/04/17 03:05:15;;;;;;;5.00;1.23;;;;;;;9.53;79.36;97384.28;5420855;26;20456;-70
2024/04/17 03:07:46;;;;;;;3.88;1.50;;;;;;;9.62;79.15;97391.03;5422628;26;20014;-70
2024/04/17 03:10:12;;;;;;;4.15;0.95;;;;;;;9.57;78.49;97375.16;5398103;26;19999;-68
2024/04/17 03:12:37;;;;;;;5.60;0.95;;;;;;;9.55;78.34;97382.31;5428309;26;20022;-68
2024/04/17 03:15:04;;;;;;;3.15;0.90;;;;;;;9.56;78.46;97385.72;5404922;26;20014;-66
2024/04/17 03:17:30;;;;;;;4.93;1.25;;;;;;;9.37;77.39;97342.81;5397010;26;20353;-66
2024/04/17 03:19:57;;;;;;;3.47;0.90;;;;;;;9.45;77.60;97380.88;5425540;26;19999;-67
2024/04/17 03:22:23;;;;;;;3.78;1.17;;;;;;;9.32;77.74;97337.31;5440785;26;20913;-67
2024/04/17 03:24:50;;;;;;;4.93;1.50;;;;;;;9.51;77.84;97375.84;5398453;26;20030;-66
2024/04/17 03:27:16;;;;;;;5.35;1.17;;;;;;;9.19;78.92;97374.16;5459702;26;20078;-66
2024/04/17 03:29:41;;;;;;;2.92;0.80;;;;;;;9.22;76.88;97335.72;5429413;26;20058;-67
2024/04/17 03:32:07;;;;;;;5.30;0.80;;;;;;;9.26;78.02;97364.72;5433855;26;19995;-66
2024/04/17 03:34:37;;;;;;;2.80;0.75;;;;;;;9.12;76.83;97336.91;5395079;26;19995;-67
2024/04/17 03:37:02;;;;;;;3.88;0.70;;;;;;;9.26;77.34;97369.13;5424708;26;20512;-66
2024/04/17 03:39:30;;;;;;;3.22;0.85;;;;;;;9.34;76.39;97371.69;5399395;26;20130;-67
2024/04/17 03:41:55;;;;;;;7.45;1.27;;;;;;;9.50;75.38;97379.41;5420450;26;19998;-65
2024/04/17 03:44:23;;;;;;;3.08;0.88;;;;;;;9.14;76.34;97337.53;5422664;26;20009;-72
2024/04/17 03:46:48;;;;;;;5.30;0.90;;;;;;;9.26;76.45;97358.75;5484566;25;19999;-66
2024/04/17 03:49:16;;;;;;;2.55;0.80;;;;;;;9.41;75.58;97378.63;5420989;26;20107;-65
2024/04/17 03:51:44;;;;;;;2.78;0.80;;;;;;;9.36;75.69;97377.50;5399524;26;20087;-67
2024/04/17 03:54:09;;;;;;;3.50;0.88;;;;;;;9.16;76.96;97375.31;5399067;26;20108;-70
2024/04/17 03:56:37;;;;;;;3.88;1.20;;;;;;;9.04;75.50;97328.16;5427306;26;20454;-69
2024/04/17 03:59:02;;;;;;;4.28;1.05;;;;;;;9.28;76.18;97362.78;5408818;26;20793;-69
2024/04/17 04:01:27;;;;;;;3.97;0.90;;;;;;;9.03;76.39;97336.94;5405430;26;19995;-70
2024/04/17 04:03:53;;;;;;;3.45;0.90;;;;;;;9.28;76.76;97377.53;5394960;26;19999;-66
2024/04/17 04:06:18;;;;;;;3.97;1.00;;;;;;;9.14;76.27;97363.47;5391888;26;20014;-68
2024/04/17 04:08:46;;;;;;;4.15;1.02;;;;;;;8.93;77.03;97358.81;5452328;26;20506;-66
2024/04/17 04:11:11;;;;;;;3.92;1.10;;;;;;;8.92;78.17;97370.97;5489512;25;20296;-67
2024/04/17 04:13:37;;;;;;;4.57;1.20;;;;;;;8.98;79.46;97369.47;5438012;26;20006;-66
2024/04/17 04:16:12;;;;;;;3.80;1.30;;;;;;;9.08;79.03;97369.31;5428025;26;20824;-69
2024/04/17 04:18:38;;;;;;;5.97;1.02;;;;;;;8.99;79.90;97369.31;5427538;26;19999;-69
2024/04/17 04:21:03;;;;;;;3.38;0.93;;;;;;;8.78;80.08;97348.28;5397700;26;20018;-67
2024/04/17 04:23:31;;;;;;;3.75;0.88;;;;;;;9.04;78.67;97381.81;5455933;26;19999;-67
2024/04/17 04:25:57;;;;;;;3.90;0.88;;;;;;;9.00;77.81;97381.31;5423574;26;20033;-66
2024/04/17 04:28:22;;;;;;;4.45;1.60;;;;;;;8.46;80.10;97374.06;5400820;26;20409;-66
2024/04/17 04:30:47;;;;;;;4.75;1.42;;;;;;;8.50;80.57;97353.03;5399395;26;20803;-71
2024/04/17 04:33:13;;;;;;;4.30;1.27;;;;;;;8.76;81.03;97379.56;5428089;26;20038;-67
2024/04/17 04:35:39;;;;;;;4.90;1.42;;;;;;;8.93;80.24;97385.56;5420779;26;19998;-66
2024/04/17 04:38:04;;;;;;;4.97;1.40;;;;;;;8.84;81.17;97374.38;5395649;26;20008;-66
2024/04/17 04:40:29;;;;;;;4.35;1.40;;;;;;;8.99;80.77;97379.69;5428905;26;20283;-67
2024/04/17 04:42:55;;;;;;;4.43;1.50;;;;;;;8.95;79.77;97391.38;5415775;26;19992;-67
2024/04/17 04:45:25;;;;;;;5.45;1.15;;;;;;;8.99;80.11;97391.84;5427790;26;19994;-70
2024/04/17 04:47:50;;;;;;;4.10;1.27;;;;;;;8.89;81.03;97379.09;5426144;26;20009;-68
2024/04/17 04:50:18;;;;;;;3.30;1.10;;;;;;;9.03;79.97;97395.72;5418271;26;19999;-66
2024/04/17 04:52:43;;;;;;;4.38;1.58;;;;;;;8.93;80.45;97377.78;5440803;26;20071;-66
2024/04/17 04:55:09;;;;;;;3.53;1.23;;;;;;;8.73;80.65;97335.03;5395639;26;20007;-67
2024/04/17 04:57:36;;;;;;;5.68;1.30;;;;;;;8.98;80.75;97391.06;5430466;26;20038;-66
2024/04/17 05:00:03;;;;;;;3.78;1.10;;;;;;;8.60;81.46;97346.72;5396427;26;20014;-72
2024/04/17 05:02:28;;;;;;;4.07;1.27;;;;;;;8.76;81.94;97377.00;5422511;26;20483;-65
2024/04/17 05:04:56;;;;;;;2.25;0.68;;;;;;;8.44;81.64;97337.16;5420646;26;20010;-69
2024/04/17 05:07:22;;;;;;;4.03;1.00;;;;;;;8.75;81.43;97379.75;5427160;26;20845;-69
2024/04/17 05:09:48;;;;;;;3.20;0.70;;;;;;;8.42;79.10;97377.16;5429393;26;20003;-69
2024/04/17 05:12:13;;;;;;;1.55;0.43;;;;;;;8.29;79.70;97372.41;5440295;26;20197;-68
2024/04/17 05:14:39;;;;;;;2.47;0.40;;;;;;;8.36;78.70;97375.16;5397433;26;20417;-68
2024/04/17 05:17:06;;;;;;;3.58;0.60;;;;;;;8.16;78.43;97359.94;5396690;26;20411;-69
2024/04/17 05:19:32;;;;;;;1.77;0.40;;;;;;;8.18;79.78;97376.13;5422949;26;20011;-69
2024/04/17 05:22:00;;;;;;;2.00;0.50;;;;;;;8.38;80.59;97378.41;5409619;26;20215;-68
2024/04/17 05:24:26;;;;;;;1.77;0.50;;;;;;;8.06;79.50;97328.19;5404985;26;20011;-67
2024/04/17 05:26:52;;;;;;;2.90;0.50;;;;;;;8.51;78.41;97371.00;5392251;26;20855;-69
2024/04/17 05:29:19;;;;;;;2.03;0.50;;;;;;;8.62;77.77;97349.94;5428119;26;20094;-69
2024/04/17 05:31:48;;;;;;;2.15;0.50;;;;;;;8.73;78.02;97364.34;5392757;26;20003;-66
2024/04/17 05:34:16;;;;;;;2.92;0.80;;;;;;;8.48;85.92;97370.50;5429049;26;20010;-66
2024/04/17 05:36:41;;;;;;;3.13;0.57;;;;;;;8.57;86.83;97367.75;5381740;26;20008;-71
2024/04/17 05:39:07;;;;;;;2.47;0.60;;;;;;;8.63;87.57;97380.06;5394945;26;20909;-68
2024/04/17 05:41:32;;;;;;;2.72;0.70;;;;;;;8.43;87.02;97332.13;5418280;26;20014;-66
2024/04/17 05:43:58;;;;;;;3.70;0.80;;;;;;;8.63;86.11;97330.84;5421173;26;20004;-68
2024/04/17 05:46:27;;;;;;;2.40;0.70;;;;;;;8.79;81.53;97357.69;5406800;26;20007;-68
2024/04/17 05:48:55;;;;;;;2.15;0.68;;;;;;;8.72;78.91;97362.72;5427997;26;19991;-70
2024/04/17 05:51:20;;;;;;;2.05;0.50;;;;;;;8.64;79.62;97370.50;5417318;26;19991;-65
2024/04/17 05:53:46;;;;;;;2.42;0.65;;;;;;;8.61;78.41;97381.19;5393489;26;20017;-67
2024/04/17 05:56:15;;;;;;;2.70;0.50;;;;;;;8.88;77.48;97374.84;5427967;26;20049;-69
2024/04/17 05:58:40;;;;;;;2.42;0.55;;;;;;;8.66;77.73;97340.06;5458093;26;20009;-65
2024/04/17 06:01:08;;;;;;;2.15;0.50;;;;;;;8.93;76.98;97370.00;5427507;26;19995;-67
2024/04/17 06:03:38;;;;;;;2.85;0.50;;;;;;;8.93;77.69;97375.19;5400947;26;20121;-70
2024/04/17 06:06:04;;;;;;;2.30;0.60;;;;;;;8.86;76.33;97366.44;5426522;26;20009;-69
2024/04/17 06:08:29;;;;;;;3.58;0.70;;;;;;;8.87;76.78;97375.84;5392275;26;20047;-68
2024/04/17 06:10:55;;;;;;;1.33;0.30;;;;;;;8.99;74.55;97363.34;5427805;26;20106;-69
2024/04/17 06:13:20;;;;;;;1.70;0.40;;;;;;;8.70;70.47;97356.88;5427037;26;19994;-68
2024/04/17 06:15:47;;;;;;;1.83;0.50;;;;;;;8.93;70.53;97370.00;5423795;26;20470;-68
2024/04/17 06:18:12;;;;;;;2.78;0.50;;;;;;;8.84;67.39;97360.63;5427488;26;20054;-71
2024/04/17 06:20:45;;;;;;;0.82;0.30;;;;;;;8.97;66.36;97366.09;5433809;26;20002;-71
2024/04/17 06:23:13;;;;;;;1.63;0.50;;;;;;;8.87;65.50;97334.38;5453418;26;20003;-70
2024/04/17 06:25:44;;;;;;;1.67;0.40;;;;;;;9.20;66.10;97371.41;5429238;26;20080;-70
2024/04/17 06:28:13;;;;;;;2.20;0.52;;;;;;;9.02;70.69;97374.19;5480457;25;20007;-69
2024/04/17 06:30:41;;;;;;;2.45;0.40;;;;;;;9.02;72.21;97369.00;5404979;26;20075;-71
2024/04/17 06:33:06;;;;;;;1.90;0.50;;;;;;;9.07;70.40;97365.91;5422349;26;20419;-70
2024/04/17 06:35:35;;;;;;;3.38;0.60;;;;;;;9.23;71.22;97368.44;5492263;25;20009;-72
2024/04/17 06:38:01;;;;;;;1.35;0.30;;;;;;;9.30;69.64;97368.59;5458967;26;20022;-68
2024/04/17 06:40:31;;;;;;;2.35;0.60;;;;;;;9.08;67.95;97322.66;5442177;26;20541;-67
2024/04/17 06:42:59;;;;;;;0.50;0.20;;;;;;;9.24;68.40;97327.78;5423184;26;20788;-73
2024/04/17 06:45:25;;;;;;;1.70;0.50;;;;;;;9.48;69.27;97352.81;5470657;26;20946;-70
2024/04/17 06:47:50;;;;;;;0.82;0.30;;;;;;;9.66;61.91;97355.19;5438600;26;20014;-69
2024/04/17 06:50:16;;;;;;;2.78;0.93;;;;;;;9.64;70.16;97351.94;5425976;26;20014;-68
2024/04/17 06:52:41;;;;;;;2.05;0.60;;;;;;;9.66;72.20;97360.38;5426443;26;20610;-70
2024/04/17 06:55:09;;;;;;;1.58;0.47;;;;;;;9.49;70.77;97362.25;5396072;26;20715;-70
2024/04/17 06:57:34;;;;;;;1.05;0.40;;;;;;;9.31;71.53;97354.69;5390044;26;19999;-69
2024/04/17 07:00:00;;;;;;;2.28;0.60;;;;;;;9.16;71.94;97357.16;5453763;26;20128;-68
2024/04/17 07:02:25;;;;;;;2.03;0.50;;;;;;;9.27;72.14;97352.56;5417839;26;20349;-71
2024/04/17 07:04:50;;;;;;;1.90;0.45;;;;;;;9.38;70.38;97342.66;5428173;26;20010;-69
2024/04/17 07:07:16;;;;;;;0.88;0.20;;;;;;;9.00;67.36;97313.91;5409351;26;21443;-70
2024/04/17 07:09:44;;;;;;;1.05;0.20;;;;;;;9.30;66.21;97342.66;5426649;26;20054;-69
2024/04/17 07:12:09;;;;;;;1.15;0.50;;;;;;;9.41;65.03;97341.50;5417913;26;20003;-74
2024/04/17 07:14:37;;;;;;;1.30;0.50;;;;;;;9.49;65.39;97331.09;5384316;26;20488;-68
2024/04/17 07:17:05;;;;;;;0.85;0.28;;;;;;;9.39;65.78;97333.06;5433311;26;20817;-69
2024/04/17 07:19:30;;;;;;;3.38;0.50;;;;;;;9.52;64.31;97343.72;5409203;26;20022;-67
2024/04/17 07:21:56;;;;;;;2.28;0.40;;;;;;;9.59;64.36;97334.28;5433335;26;20002;-70
2024/04/17 07:24:24;;;;;;;4.22;1.40;;;;;;;9.71;52.62;97324.34;5440278;26;20016;-69
2024/04/17 07:26:56;;;;;;;4.43;1.83;;;;;;;9.99;48.36;97331.63;5405768;26;20000;-70
2024/04/17 07:29:21;;;;;;;2.50;0.60;;;;;;;10.14;46.52;97321.31;5432240;26;20009;-68
2024/04/17 07:31:50;;;;;;;2.33;0.85;;;;;;;10.30;45.39;97338.56;5436329;26;20027;-69
2024/04/17 07:34:18;;;;;;;4.07;1.20;;;;;;;10.36;44.91;97325.72;5443326;26;19994;-73
2024/04/17 07:36:48;;;;;;;6.03;0.82;;;;;;;10.24;44.29;97277.72;5411152;26;20001;-71
2024/04/17 07:39:14;;;;;;;3.38;0.57;;;;;;;10.38;43.67;97281.38;5421818;26;20009;-70
2024/04/17 07:41:41;;;;;;;2.78;0.68;;;;;;;10.35;44.58;97285.13;5447648;26;20009;-70
2024/04/17 07:44:08;;;;;;;3.65;0.60;;;;;;;10.62;44.41;97327.13;5455527;26;20009;-68
2024/04/17 07:46:34;;;;;;;2.85;0.90;;;;;;;10.70;43.63;97326.25;5453341;26;20011;-70
2024/04/17 07:49:02;;;;;;;4.38;1.35;;;;;;;10.70;43.22;97311.47;5435651;26;20046;-69
2024/04/17 07:51:32;;;;;;;3.70;1.05;;;;;;;10.82;44.45;97317.00;5438692;26;19995;-69
2024/04/17 07:53:57;;;;;;;7.00;2.53;;;;;;;10.56;44.90;97276.66;5457546;26;20307;-70
2024/04/17 07:56:23;;;;;;;3.85;0.88;;;;;;;10.73;44.59;97323.28;5462341;26;19994;-69
2024/04/17 07:58:48;;;;;;;3.10;0.50;;;;;;;10.86;44.04;97310.50;5449434;26;19998;-71
2024/04/17 08:01:15;;;;;;;6.93;2.28;;;;;;;10.77;43.78;97312.38;5426487;26;19990;-71
2024/04/17 08:03:41;;;;;;;5.45;1.70;;;;;;;10.90;43.32;97309.16;5416847;26;19999;-71
2024/04/17 08:06:06;;;;;;;4.35;1.00;;;;;;;10.80;42.77;97294.78;5443339;26;20042;-71
2024/04/17 08:08:35;;;;;;;1.67;0.40;;;;;;;10.83;42.32;97303.03;5445582;26;20050;-70
2024/04/17 08:11:01;;;;;;;2.40;0.70;;;;;;;10.90;42.40;97303.94;5438842;26;21287;-68
2024/04/17 08:13:29;;;;;;;5.32;1.25;;;;;;;10.89;42.70;97293.72;5436475;26;20048;-70
2024/04/17 08:15:54;;;;;;;3.13;0.82;;;;;;;10.87;42.41;97299.09;5409456;26;20002;-71
2024/04/17 08:18:20;;;;;;;2.20;0.60;;;;;;;10.89;42.36;97289.31;5450404;26;20033;-70
2024/04/17 08:20:53;;;;;;;4.57;1.83;;;;;;;10.98;41.99;97289.25;5408399;26;19996;-69
2024/04/17 08:23:19;;;;;;;3.40;0.80;;;;;;;10.75;41.60;97257.16;5415315;26;19999;-70
2024/04/17 08:25:47;;;;;;;2.20;0.63;;;;;;;10.83;41.17;97252.84;5454938;26;20838;-69
2024/04/17 08:28:15;;;;;;;1.80;0.40;;;;;;;11.55;40.29;97252.09;5450373;26;20059;-70
2024/04/17 08:30:41;;;;;;;1.63;0.30;;;;;;;13.89;36.03;97285.75;5447317;26;20424;-69
2024/04/17 08:33:11;;;;;;;1.95;0.60;;;;;;;15.71;34.14;97285.28;5419848;26;20030;-69
2024/04/17 08:35:37;;;;;;;2.55;0.35;;;;;;;16.62;31.84;97286.69;5424260;26;20002;-68
2024/04/17 08:38:05;;;;;;;3.20;0.43;;;;;;;16.97;29.70;97280.94;5423569;26;19999;-67
2024/04/17 08:40:33;;;;;;;1.75;0.52;;;;;;;17.02;29.45;97277.66;5408607;26;20070;-70
2024/04/17 08:43:04;;;;;;;3.15;0.50;;;;;;;17.82;29.37;97277.50;5448826;26;20467;-69
2024/04/17 08:45:34;;;;;;;3.47;0.70;;;;;;;18.34;28.49;97276.94;5425589;26;20009;-69
2024/04/17 08:48:03;;;;;;;4.15;0.60;;;;;;;18.32;27.24;97279.00;5417127;26;20002;-69
2024/04/17 08:50:30;;;;;;;0.30;0.13;;;;;;;17.97;27.53;97269.22;5423669;26;20086;-67
2024/04/17 08:52:58;;;;;;;1.83;0.32;;;;;;;17.33;27.15;97260.16;5403978;26;20815;-68
2024/04/17 08:55:25;;;;;;;1.00;0.20;;;;;;;16.65;27.64;97269.72;5473665;26;20010;-69
2024/04/17 08:57:52;;;;;;;1.60;0.30;;;;;;;15.84;29.02;97260.84;5427111;26;20008;-69
2024/04/17 09:00:17;;;;;;;2.33;0.38;;;;;;;15.32;29.80;97253.84;5435221;26;19999;-68
2024/04/17 09:02:43;;;;;;;2.45;0.40;;;;;;;14.74;31.92;97225.03;5461928;26;19998;-66
2024/04/17 09:05:10;;;;;;;1.67;0.30;;;;;;;14.67;31.56;97264.28;5491242;25;20005;-69
2024/04/17 09:07:40;;;;;;;1.17;0.20;;;;;;;14.82;32.13;97258.00;5417021;26;20003;-68
2024/04/17 09:10:09;;;;;;;2.08;0.32;;;;;;;14.91;34.00;97256.78;5440388;26;20562;-68
2024/04/17 09:12:34;;;;;;;1.83;0.20;;;;;;;14.84;33.11;97254.19;5416043;26;19999;-69
2024/04/17 09:15:02;;;;;;;1.23;0.40;;;;;;;14.92;32.64;97246.13;5420407;26;19998;-69
2024/04/17 09:17:27;;;;;;;0.65;0.20;;;;;;;14.95;30.22;97234.44;5415193;26;19995;-67
2024/04/17 09:19:53;;;;;;;1.02;0.30;;;;;;;14.75;30.91;97221.41;5428468;26;20012;-66
2024/04/17 09:22:21;;;;;;;0.55;0.10;;;;;;;15.06;31.00;97241.66;5449715;26;20446;-68
2024/04/17 09:24:49;;;;;;;1.63;0.20;;;;;;;15.17;31.74;97245.44;5419373;26;20059;-69
2024/04/17 09:27:16;;;;;;;0.50;0.10;;;;;;;15.21;33.55;97249.25;5420145;26;19995;-68
2024/04/17 09:29:42;;;;;;;0.82;0.15;;;;;;;15.03;29.67;97239.44;5408481;26;20010;-69
2024/04/17 09:32:14;;;;;;;1.20;0.28;;;;;;;15.18;26.63;97247.84;5444058;26;19999;-68
2024/04/17 09:34:40;;;;;;;0.20;0.00;;;;;;;15.09;28.33;97232.56;5415674;26;20099;-67
2024/04/17 09:37:10;;;;;;;0.22;0.10;;;;;;;15.28;28.64;97244.78;5448226;26;20007;-68
2024/04/17 09:39:38;;;;;;;0.00;0.00;;;;;;;15.26;28.78;97233.72;5417227;26;20513;-67
2024/04/17 09:42:06;;;;;;;0.30;0.10;;;;;;;15.26;29.04;97228.50;5412332;26;20012;-66
2024/04/17 09:44:36;;;;;;;0.10;0.10;;;;;;;15.33;33.73;97224.03;5409652;26;20057;-69
2024/04/17 09:47:07;;;;;;;0.68;0.10;;;;;;;15.44;31.79;97227.81;5403123;26;20010;-71
2024/04/17 09:49:36;;;;;;;0.10;0.00;;;;;;;15.48;27.29;97221.13;5408312;26;19995;-67
2024/04/17 09:52:07;;;;;;;0.00;0.00;;;;;;;15.36;28.65;97225.41;5430824;26;20469;-66
2024/04/17 09:54:34;;;;;;;0.43;0.10;;;;;;;15.61;27.12;97220.25;5453381;26;21032;-70
2024/04/17 09:56:59;;;;;;;0.52;0.10;;;;;;;15.44;26.70;97221.75;5414315;26;20013;-70
2024/04/17 09:59:28;;;;;;;1.08;0.10;;;;;;;15.62;27.08;97213.19;5453674;26;20894;-74
2024/04/17 10:01:58;;;;;;;0.35;0.20;;;;;;;15.61;25.47;97219.47;5422694;26;20072;-72
2024/04/17 10:04:25;;;;;;;0.40;0.20;;;;;;;15.53;25.04;97174.16;5403567;26;20007;-68
2024/04/17 10:06:50;;;;;;;0.20;0.10;;;;;;;15.76;28.70;97212.13;5403451;26;20002;-73
2024/04/17 10:09:19;;;;;;;0.40;0.10;;;;;;;15.76;29.33;97214.75;5434360;26;20006;-69
2024/04/17 10:11:50;;;;;;;0.00;0.00;;;;;;;15.77;25.37;97211.13;5435594;26;20022;-72
2024/04/17 10:14:19;;;;;;;0.03;0.00;;;;;;;15.90;26.38;97210.22;5404932;26;20059;-71
2024/04/17 10:16:47;;;;;;;1.65;0.10;;;;;;;15.75;25.84;97200.03;5442108;26;19990;-70
2024/04/17 10:19:18;;;;;;;0.32;0.08;;;;;;;15.80;26.20;97186.28;5408950;26;20009;-70
2024/04/17 10:21:43;;;;;;;0.55;0.00;;;;;;;15.79;25.36;97184.69;5431019;26;20025;-71
2024/04/17 10:24:10;;;;;;;0.85;0.10;;;;;;;15.66;26.29;97175.88;5437426;26;19994;-71
2024/04/17 10:26:46;;;;;;;0.00;0.00;;;;;;;15.72;26.52;97161.94;5410003;26;20077;-69
2024/04/17 10:29:28;;;;;;;0.38;0.00;;;;;;;16.00;23.19;97162.56;5424993;26;20014;-70
2024/04/17 10:32:13;;;;;;;0.73;0.30;;;;;;;16.17;22.40;97181.16;5425342;26;20045;-68
2024/04/17 10:34:46;;;;;;;0.65;0.20;;;;;;;16.06;23.07;97157.25;5426089;26;20030;-69
2024/04/17 10:37:16;;;;;;;0.30;0.10;;;;;;;16.17;22.71;97183.78;5409321;26;19994;-69
2024/04/17 10:39:42;;;;;;;0.17;0.10;;;;;;;16.19;25.92;97173.88;5402707;26;20010;-70
2024/04/17 10:42:08;;;;;;;0.93;0.13;;;;;;;16.07;24.26;97182.44;5395161;26;19999;-71
2024/04/17 10:44:35;;;;;;;0.80;0.30;;;;;;;16.37;26.19;97178.34;5395523;26;20106;-69
2024/04/17 10:47:04;;;;;;;0.43;0.20;;;;;;;16.32;27.44;97179.81;5426407;26;20478;-69
2024/04/17 10:49:41;;;;;;;0.90;0.28;;;;;;;16.39;26.04;97168.44;5404811;26;20007;-69
2024/04/17 10:52:06;;;;;;;0.00;0.00;;;;;;;16.37;26.19;97166.03;5415594;26;20570;-69
2024/04/17 10:54:34;;;;;;;0.00;0.00;;;;;;;16.04;22.76;97125.19;5429844;26;19999;-68
2024/04/17 10:57:01;;;;;;;0.20;0.10;;;;;;;16.29;25.93;97147.97;5464168;26;20013;-69
2024/04/17 10:59:27;;;;;;;0.00;0.00;;;;;;;16.41;22.57;97167.22;5408343;26;20930;-70
2024/04/17 11:01:52;;;;;;;0.65;0.10;;;;;;;16.63;24.56;97161.53;5418303;26;20011;-69
2024/04/17 11:04:18;;;;;;;0.40;0.10;;;;;;;16.66;26.37;97174.22;5391746;26;20046;-69
2024/04/17 11:06:43;;;;;;;0.50;0.08;;;;;;;16.45;26.08;97163.13;5420436;26;19994;-71
2024/04/17 11:09:09;;;;;;;0.13;0.10;;;;;;;16.65;23.67;97175.25;5419549;26;20005;-70
2024/04/17 11:11:37;;;;;;;0.63;0.17;;;;;;;16.29;24.26;97143.53;5387469;26;20032;-71
2024/04/17 11:14:02;;;;;;;0.77;0.30;;;;;;;16.75;25.47;97180.78;5487397;25;20013;-70
2024/04/17 11:16:28;;;;;;;1.20;0.10;;;;;;;16.61;27.50;97171.44;5423239;26;20543;-67
2024/04/17 11:18:53;;;;;;;0.85;0.20;;;;;;;16.71;24.45;97174.38;5421728;26;20088;-69
2024/04/17 11:21:22;;;;;;;0.47;0.10;;;;;;;16.68;26.95;97180.06;5432934;26;19999;-70
2024/04/17 11:23:53;;;;;;;0.45;0.20;;;;;;;16.68;24.19;97127.56;5457229;26;20003;-71
2024/04/17 11:26:18;;;;;;;0.20;0.10;;;;;;;16.93;24.51;97151.13;5403344;26;20455;-72
2024/04/17 11:28:46;;;;;;;0.13;0.05;;;;;;;16.96;27.00;97163.00;5428210;26;19999;-70
2024/04/17 11:31:13;;;;;;;0.20;0.10;;;;;;;16.93;23.94;97126.72;5424547;26;20005;-68
2024/04/17 11:33:39;;;;;;;0.00;0.00;;;;;;;17.12;23.20;97159.75;5437504;26;20006;-71
2024/04/17 11:36:04;;;;;;;0.00;0.00;;;;;;;16.84;22.80;97131.47;5430553;26;19990;-68